KMCC/MCC METAR and TAF weather

Enter ICAO airport designator
Station Type Date Time Source
KMCC METAR 2021/10/24 15:50 UTC NOAA

KMCC 241550Z AUTO 15029KT 1 1/2SM -RA OVC033 13/12 A2963 RMK AO2


Station Type Date Time Source
KMCC Decoded METAR 2021/10/24 15:50 UTC NOAA

Sacramento, McClellan Airfield Airport, CA, United States (KMCC) 38-40N 121-24W
Oct 24, 2021 - 11:50 AM EDT / 2021.10.24 1550 UTC
Wind: from the SSE (150 degrees) at 33 MPH (29 KT):0
Visibility: 1 1/2 mile(s):0
Sky conditions: overcast
Weather: light rain
Temperature: 55 F (13 C)
Dew Point: 53 F (12 C)
Relative Humidity: 93%
Pressure (altimeter): 29.63 in. Hg (1003 hPa)
ob: KMCC 241550Z AUTO 15029KT 1 1/2SM -RA OVC033 13/12 A2963 RMK AO2
cycle: 16

Station Type Date Time Source
KMCC TAF 2021/10/24 18:58 UTC NOAA

TAF KMCC 241757Z 2418/2518 15029KT 1 1/2SM -RA OVC035
FM242100 17016G24KT 3SM -RA BR OVC025
TEMPO 2421/2501 2SM RA OVC015
FM250400 15012KT P6SM -SHRA SCT020 OVC035

Example: see airport list